createdAt,value
2023-05-02T00:00:08.209Z,98044.50
2023-05-02T00:02:34.994Z,98041.38
2023-05-02T00:05:12.150Z,98043.66
2023-05-02T00:07:40.624Z,98044.47
2023-05-02T00:10:08.380Z,98043.28
2023-05-02T00:12:35.016Z,98036.34
2023-05-02T00:15:01.718Z,98042.94
2023-05-02T00:17:28.491Z,98045.28
2023-05-02T00:19:56.881Z,98043.34
2023-05-02T00:22:23.549Z,98039.81
2023-05-02T00:24:50.028Z,98043.63
2023-05-02T00:27:21.617Z,98042.44
2023-05-02T00:29:48.087Z,98039.75
2023-05-02T00:32:15.116Z,98035.47
2023-05-02T00:34:41.805Z,98032.00
2023-05-02T00:37:08.372Z,98038.16
2023-05-02T00:39:35.886Z,98038.91
2023-05-02T00:42:02.939Z,98039.06
2023-05-02T00:44:29.671Z,98039.44
2023-05-02T00:46:56.850Z,98038.69
2023-05-02T00:49:23.706Z,98038.69
2023-05-02T00:51:50.502Z,98040.88
2023-05-02T00:54:17.131Z,98032.75
2023-05-02T00:56:43.549Z,98033.59
2023-05-02T00:59:13.260Z,98034.34
2023-05-02T01:01:48.548Z,98032.03
2023-05-02T01:04:25.145Z,98036.28
2023-05-02T01:07:06.619Z,98039.66
2023-05-02T01:09:52.265Z,98037.22
2023-05-02T01:12:32.975Z,98047.34
2023-05-02T01:15:05.386Z,98048.91
2023-05-02T01:17:34.565Z,98049.22
2023-05-02T01:20:10.405Z,98048.41
2023-05-02T01:22:40.575Z,98050.41
2023-05-02T01:25:28.286Z,98054.31
2023-05-02T01:28:20.896Z,98056.63
2023-05-02T01:30:50.737Z,98054.31
2023-05-02T01:33:19.070Z,98053.47
2023-05-02T01:35:49.674Z,98053.44
2023-05-02T01:38:24.246Z,98047.97
2023-05-02T01:40:56.654Z,98051.44
2023-05-02T01:43:24.658Z,98053.97
2023-05-02T01:45:54.452Z,98052.81
2023-05-02T01:48:22.796Z,98060.97
2023-05-02T01:50:51.890Z,98066.28
2023-05-02T01:53:19.368Z,98064.03
2023-05-02T01:55:49.388Z,98068.59
2023-05-02T01:58:18.280Z,98060.03
2023-05-02T02:00:46.508Z,98061.59
2023-05-02T02:03:18.335Z,98061.72
2023-05-02T02:05:48.374Z,98067.22
2023-05-02T02:08:14.961Z,98070.25
2023-05-02T02:10:45.218Z,98073.25
2023-05-02T02:13:24.544Z,98075.13
2023-05-02T02:15:58.025Z,98072.38
2023-05-02T02:18:27.733Z,98072.31
2023-05-02T02:21:00.884Z,98070.38
2023-05-02T02:23:30.158Z,98073.16
2023-05-02T02:25:57.672Z,98074.63
2023-05-02T02:28:24.514Z,98069.50
2023-05-02T02:30:51.281Z,98072.94
2023-05-02T02:33:19.650Z,98075.22
2023-05-02T02:35:59.897Z,98077.16
2023-05-02T02:38:41.853Z,98076.38
2023-05-02T02:41:27.758Z,98072.94
2023-05-02T02:44:04.228Z,98082.28
2023-05-02T02:46:31.897Z,98078.44
2023-05-02T02:49:27.145Z,98079.28
2023-05-02T02:52:04.575Z,98078.50
2023-05-02T02:54:41.236Z,98082.47
2023-05-02T02:57:19.634Z,98079.09
2023-05-02T03:00:03.606Z,98095.31
2023-05-02T03:02:32.912Z,98092.19
2023-05-02T03:05:02.454Z,98090.94
2023-05-02T03:07:29.420Z,98084.69
2023-05-02T03:09:56.115Z,98093.22
2023-05-02T03:12:22.778Z,98097.88
2023-05-02T03:14:49.867Z,98100.28
2023-05-02T03:17:16.449Z,98106.13
2023-05-02T03:19:42.930Z,98103.28
2023-05-02T03:22:09.435Z,98106.31
2023-05-02T03:24:40.483Z,98106.06
2023-05-02T03:27:07.163Z,98110.34
2023-05-02T03:29:33.700Z,98104.97
2023-05-02T03:32:02.554Z,98114.25
2023-05-02T03:34:29.066Z,98106.81
2023-05-02T03:36:57.951Z,98101.69
2023-05-02T03:39:24.664Z,98105.84
2023-05-02T03:41:51.138Z,98120.03
2023-05-02T03:44:17.638Z,98111.03
2023-05-02T03:46:44.301Z,98115.88
2023-05-02T03:49:13.760Z,98123.88
2023-05-02T03:51:40.479Z,98120.81
2023-05-02T03:54:07.876Z,98128.97
2023-05-02T03:56:34.328Z,98128.06
2023-05-02T03:59:01.312Z,98126.38
2023-05-02T04:01:29.601Z,98136.31
2023-05-02T04:03:56.280Z,98122.41
2023-05-02T04:06:25.019Z,98128.53
2023-05-02T04:08:53.264Z,98130.97
2023-05-02T04:11:19.790Z,98136.31
2023-05-02T04:13:46.260Z,98138.91
2023-05-02T04:16:12.941Z,98140.22
2023-05-02T04:18:41.740Z,98147.88
2023-05-02T04:21:10.416Z,98155.84
2023-05-02T04:23:37.101Z,98155.91
2023-05-02T04:26:03.686Z,98157.50
2023-05-02T04:28:30.281Z,98169.81
2023-05-02T04:30:57.720Z,98174.50
2023-05-02T04:33:24.621Z,98173.81
2023-05-02T04:35:51.136Z,98182.69
2023-05-02T04:38:17.891Z,98190.44
2023-05-02T04:40:44.702Z,98188.09
2023-05-02T04:43:14.562Z,98201.69
2023-05-02T04:45:41.239Z,98197.03
2023-05-02T04:48:07.767Z,98207.13
2023-05-02T04:50:34.591Z,98215.09
2023-05-02T04:53:03.280Z,98216.22
2023-05-02T04:55:34.366Z,98225.25
2023-05-02T04:58:00.813Z,98222.25
2023-05-02T05:00:33.970Z,98226.25
2023-05-02T05:03:01.707Z,98232.50
2023-05-02T05:05:28.856Z,98224.03
2023-05-02T05:07:57.067Z,98230.56
2023-05-02T05:10:23.633Z,98229.44
2023-05-02T05:12:50.304Z,98235.25
2023-05-02T05:15:17.263Z,98228.38
2023-05-02T05:17:46.597Z,98233.06
2023-05-02T05:20:13.525Z,98229.34
2023-05-02T05:22:43.211Z,98231.69
2023-05-02T05:25:11.829Z,98243.44
2023-05-02T05:27:38.800Z,98242.75
2023-05-02T05:30:07.133Z,98254.28
2023-05-02T05:32:33.967Z,98251.78
2023-05-02T05:35:00.489Z,98255.00
2023-05-02T05:37:27.226Z,98248.28
2023-05-02T05:39:53.753Z,98250.06
2023-05-02T05:42:20.348Z,98246.91
2023-05-02T05:44:46.962Z,98249.97
2023-05-02T05:47:19.269Z,98251.03
2023-05-02T05:49:45.782Z,98245.22
2023-05-02T05:52:14.152Z,98258.69
2023-05-02T05:54:42.866Z,98261.66
2023-05-02T05:57:09.305Z,98258.44
2023-05-02T05:59:36.748Z,98260.03
2023-05-02T06:02:04.119Z,98265.78
2023-05-02T06:04:30.692Z,98269.72
2023-05-02T06:06:57.355Z,98276.22
2023-05-02T06:09:24.380Z,98276.00
2023-05-02T06:11:50.863Z,98281.91
2023-05-02T06:14:19.141Z,98285.78
2023-05-02T06:16:45.679Z,98286.97
2023-05-02T06:19:15.582Z,98292.09
2023-05-02T06:21:44.351Z,98292.28
2023-05-02T06:24:10.805Z,98294.16
2023-05-02T06:26:37.335Z,98293.16
2023-05-02T06:29:04.029Z,98293.63
2023-05-02T06:31:30.740Z,98301.03
2023-05-02T06:33:57.248Z,98296.75
2023-05-02T06:36:25.549Z,98289.69
2023-05-02T06:38:52.027Z,98296.59
2023-05-02T06:41:20.691Z,98298.81
2023-05-02T06:43:55.837Z,98306.53
2023-05-02T06:46:23.631Z,98299.84
2023-05-02T06:48:50.149Z,98298.66
2023-05-02T06:51:16.688Z,98304.09
2023-05-02T06:53:43.165Z,98307.56
2023-05-02T06:56:11.982Z,98308.84
2023-05-02T06:58:40.641Z,98315.06
2023-05-02T07:01:07.177Z,98313.44
2023-05-02T07:03:33.684Z,98309.59
2023-05-02T07:06:00.195Z,98323.50
2023-05-02T07:08:26.816Z,98321.19
2023-05-02T07:10:53.291Z,98325.09
2023-05-02T07:13:19.818Z,98320.44
2023-05-02T07:15:46.300Z,98326.00
2023-05-02T07:18:12.832Z,98328.09
2023-05-02T07:20:43.367Z,98324.00
2023-05-02T07:23:09.869Z,98326.28
2023-05-02T07:25:36.864Z,98325.09
2023-05-02T07:28:03.867Z,98312.88
2023-05-02T07:30:30.348Z,98318.19
2023-05-02T07:32:57.081Z,98311.75
2023-05-02T07:35:25.402Z,98316.66
2023-05-02T07:37:51.982Z,98313.63
2023-05-02T07:40:21.790Z,98313.53
2023-05-02T07:42:50.757Z,98314.50
2023-05-02T07:45:17.631Z,98316.63
2023-05-02T07:47:45.273Z,98313.47
2023-05-02T07:50:12.025Z,98319.78
2023-05-02T07:52:38.656Z,98316.06
2023-05-02T07:55:05.589Z,98312.16
2023-05-02T07:57:32.329Z,98316.91
2023-05-02T07:59:59.955Z,98301.91
2023-05-02T08:02:31.500Z,98310.34
2023-05-02T08:04:58.299Z,98308.84
2023-05-02T08:07:28.765Z,98307.75
2023-05-02T08:09:55.440Z,98304.25
2023-05-02T08:12:23.665Z,98310.09
2023-05-02T08:14:50.405Z,98307.78
2023-05-02T08:17:16.873Z,98306.66
2023-05-02T08:19:43.496Z,98314.88
2023-05-02T08:22:10.116Z,98308.75
2023-05-02T08:24:36.620Z,98315.19
2023-05-02T08:27:05.508Z,98313.44
2023-05-02T08:29:32.922Z,98312.94
2023-05-02T08:31:59.532Z,98307.72
2023-05-02T08:34:36.510Z,98313.91
2023-05-02T08:37:08.661Z,98311.16
2023-05-02T08:39:38.469Z,98306.50
2023-05-02T08:42:10.678Z,98313.41
2023-05-02T08:44:37.767Z,98318.38
2023-05-02T08:47:06.850Z,98315.25
2023-05-02T08:49:38.167Z,98319.53
2023-05-02T08:52:06.745Z,98326.56
2023-05-02T08:54:33.902Z,98329.28
2023-05-02T08:57:05.505Z,98325.38
2023-05-02T08:59:32.081Z,98324.72
2023-05-02T09:02:05.187Z,98324.06
2023-05-02T09:04:36.931Z,98322.22
2023-05-02T09:07:03.468Z,98327.59
2023-05-02T09:09:31.757Z,98323.94
2023-05-02T09:11:58.860Z,98325.59
2023-05-02T09:14:25.410Z,98320.81
2023-05-02T09:16:59.081Z,98326.47
2023-05-02T09:19:27.080Z,98324.88
2023-05-02T09:22:00.454Z,98317.50
2023-05-02T09:24:27.025Z,98325.13
2023-05-02T09:27:06.761Z,98324.56
2023-05-02T09:29:38.892Z,98322.91
2023-05-02T09:32:06.860Z,98326.34
2023-05-02T09:34:40.862Z,98328.28
2023-05-02T09:37:07.417Z,98330.84
2023-05-02T09:39:33.996Z,98331.41
2023-05-02T09:42:01.358Z,98332.06
2023-05-02T09:44:37.171Z,98332.28
2023-05-02T09:47:08.587Z,98336.44
2023-05-02T09:49:44.862Z,98331.03
2023-05-02T09:52:21.183Z,98323.59
2023-05-02T09:54:50.759Z,98329.59
2023-05-02T09:57:17.496Z,98337.91
2023-05-02T09:59:55.806Z,98335.19
2023-05-02T10:02:25.408Z,98340.63
2023-05-02T10:04:53.908Z,98342.59
2023-05-02T10:07:20.937Z,98335.63
2023-05-02T10:09:52.335Z,98338.75
2023-05-02T10:12:24.068Z,98337.97
2023-05-02T10:14:58.092Z,98343.78
2023-05-02T10:17:34.006Z,98338.91
2023-05-02T10:20:06.945Z,98337.88
2023-05-02T10:22:34.548Z,98345.38
2023-05-02T10:25:03.404Z,98334.41
2023-05-02T10:27:31.846Z,98334.53
2023-05-02T10:29:59.295Z,98332.38
2023-05-02T10:32:31.027Z,98335.09
2023-05-02T10:35:02.849Z,98329.72
2023-05-02T10:37:30.943Z,98325.09
2023-05-02T10:39:59.408Z,98316.88
2023-05-02T10:42:27.619Z,98318.94
2023-05-02T10:44:54.405Z,98314.75
2023-05-02T10:47:22.153Z,98309.81
2023-05-02T10:49:55.385Z,98313.69
2023-05-02T10:52:30.615Z,98318.53
2023-05-02T10:58:09.902Z,98317.31
2023-05-02T11:00:36.645Z,98316.19
2023-05-02T11:03:03.799Z,98313.94
2023-05-02T11:05:32.246Z,98308.69
2023-05-02T11:08:19.331Z,98309.88
2023-05-02T11:10:47.671Z,98314.63
2023-05-02T11:13:14.222Z,98314.16
2023-05-02T11:15:40.788Z,98301.69
2023-05-02T11:18:13.072Z,98305.97
2023-05-02T11:20:42.279Z,98311.97
2023-05-02T11:23:34.388Z,98311.50
2023-05-02T11:26:01.104Z,98313.94
2023-05-02T11:28:36.729Z,98303.16
2023-05-02T11:31:07.140Z,98309.00
2023-05-02T11:33:34.021Z,98297.88
2023-05-02T11:36:03.442Z,98297.34
2023-05-02T11:38:38.269Z,98302.50
2023-05-02T11:41:05.168Z,98291.22
2023-05-02T11:43:32.588Z,98290.41
2023-05-02T11:46:02.001Z,98296.47
2023-05-02T11:48:31.305Z,98290.88
2023-05-02T11:51:07.847Z,98294.66
2023-05-02T11:53:41.057Z,98294.47
2023-05-02T11:56:09.015Z,98297.72
2023-05-02T11:58:35.509Z,98297.22
2023-05-02T12:01:19.956Z,98290.16
2023-05-02T12:03:48.468Z,98289.44
2023-05-02T12:06:19.457Z,98291.69
2023-05-02T12:08:48.423Z,98291.47
2023-05-02T12:11:17.256Z,98290.56
2023-05-02T12:13:48.830Z,98290.00
2023-05-02T12:16:19.652Z,98294.78
2023-05-02T12:18:48.001Z,98299.53
2023-05-02T12:21:14.607Z,98310.44
2023-05-02T12:23:42.590Z,98313.75
2023-05-02T12:26:21.379Z,98309.59
2023-05-02T12:28:56.880Z,98312.28
2023-05-02T12:31:23.943Z,98314.88
2023-05-02T12:33:52.366Z,98307.56
2023-05-02T12:36:21.498Z,98309.56
2023-05-02T12:38:52.152Z,98312.97
2023-05-02T12:41:20.125Z,98318.66
2023-05-02T12:43:48.672Z,98325.59
2023-05-02T12:46:16.312Z,98316.88
2023-05-02T12:48:44.868Z,98311.50
2023-05-02T12:51:24.780Z,98310.34
2023-05-02T12:53:51.307Z,98303.75
2023-05-02T12:56:18.055Z,98296.75
2023-05-02T12:58:48.274Z,98301.44
2023-05-02T13:01:15.711Z,98298.31
2023-05-02T13:03:44.655Z,98298.31
2023-05-02T13:06:11.569Z,98303.75
2023-05-02T13:08:38.126Z,98298.69
2023-05-02T13:11:04.854Z,98300.63
2023-05-02T13:13:34.345Z,98297.50
2023-05-02T13:16:01.277Z,98296.75
2023-05-02T13:18:30.656Z,98296.34
2023-05-02T13:20:59.405Z,98295.53
2023-05-02T13:23:25.952Z,98292.00
2023-05-02T13:25:52.388Z,98293.84
2023-05-02T13:28:21.466Z,98287.47
2023-05-02T13:30:48.006Z,98289.34
2023-05-02T13:33:14.837Z,98294.41
2023-05-02T13:35:41.626Z,98286.16
2023-05-02T13:38:08.098Z,98286.44
2023-05-02T13:40:37.891Z,98279.00
2023-05-02T13:43:06.321Z,98285.84
2023-05-02T13:45:36.737Z,98283.81
2023-05-02T13:48:03.388Z,98284.81
2023-05-02T13:50:30.062Z,98281.50
2023-05-02T13:52:56.524Z,98282.06
2023-05-02T13:55:23.173Z,98287.34
2023-05-02T13:58:01.060Z,98276.34
2023-05-02T14:00:29.261Z,98275.50
2023-05-02T14:02:55.936Z,98273.28
2023-05-02T14:05:22.570Z,98273.00
2023-05-02T14:07:49.251Z,98273.00
2023-05-02T14:10:19.607Z,98266.53
2023-05-02T14:12:46.325Z,98278.03
2023-05-02T14:15:12.895Z,98274.31
2023-05-02T14:17:39.401Z,98279.16
2023-05-02T14:20:12.232Z,98276.28
2023-05-02T14:22:38.983Z,98284.50
2023-05-02T14:25:09.909Z,98280.97
2023-05-02T14:27:40.778Z,98283.19
2023-05-02T14:30:08.548Z,98283.38
2023-05-02T14:32:35.107Z,98292.41
2023-05-02T14:35:06.210Z,98284.84
2023-05-02T14:37:32.693Z,98286.47
2023-05-02T14:39:59.620Z,98292.25
2023-05-02T14:42:26.596Z,98291.66
2023-05-02T14:44:53.553Z,98289.91
2023-05-02T14:47:21.015Z,98277.00
2023-05-02T14:49:49.279Z,98277.78
2023-05-02T14:52:15.825Z,98279.00
2023-05-02T14:54:42.329Z,98281.44
2023-05-02T14:57:10.783Z,98281.84
2023-05-02T14:59:38.712Z,98284.47
2023-05-02T15:02:09.092Z,98287.25
2023-05-02T15:04:44.127Z,98287.94
2023-05-02T15:07:15.875Z,98290.63
2023-05-02T15:09:42.823Z,98293.75
2023-05-02T15:12:09.538Z,98298.09
2023-05-02T15:14:36.112Z,98297.34
2023-05-02T15:17:02.847Z,98303.16
2023-05-02T15:19:38.016Z,98300.09
2023-05-02T15:22:04.554Z,98296.50
2023-05-02T15:24:31.156Z,98302.28
2023-05-02T15:26:58.043Z,98300.75
2023-05-02T15:29:24.573Z,98294.16
2023-05-02T15:31:51.344Z,98301.88
2023-05-02T15:34:19.781Z,98297.91
2023-05-02T15:36:46.329Z,98296.06
2023-05-02T15:39:12.918Z,98300.72
2023-05-02T15:41:39.595Z,98296.81
2023-05-02T15:44:06.061Z,98300.00
2023-05-02T15:46:32.633Z,98298.88
2023-05-02T15:49:04.485Z,98319.25
2023-05-02T15:51:31.020Z,98323.66
2023-05-02T15:53:58.553Z,98325.41
2023-05-02T15:56:25.524Z,98328.59
2023-05-02T15:58:52.240Z,98328.63
2023-05-02T16:01:21.076Z,98333.34
2023-05-02T16:03:48.192Z,98327.50
2023-05-02T16:06:16.033Z,98329.84
2023-05-02T16:08:42.555Z,98334.13
2023-05-02T16:11:16.641Z,98324.00
2023-05-02T16:13:43.116Z,98319.72
2023-05-02T16:16:09.628Z,98319.34
2023-05-02T16:18:36.305Z,98318.94
2023-05-02T16:21:03.831Z,98311.16
2023-05-02T16:23:30.614Z,98316.97
2023-05-02T16:25:58.811Z,98325.56
2023-05-02T16:28:25.441Z,98311.91
2023-05-02T16:30:52.460Z,98318.53
2023-05-02T16:33:21.492Z,98320.44
2023-05-02T16:35:48.337Z,98329.78
2023-05-02T16:38:14.873Z,98326.63
2023-05-02T16:40:41.746Z,98339.84
2023-05-02T16:43:08.880Z,98332.50
2023-05-02T16:45:35.531Z,98338.38
2023-05-02T16:48:04.471Z,98346.97
2023-05-02T16:50:31.447Z,98346.16
2023-05-02T16:52:57.927Z,98346.56
2023-05-02T16:55:35.803Z,98353.19
2023-05-02T16:58:06.498Z,98357.47
2023-05-02T17:00:34.017Z,98342.66
2023-05-02T17:03:02.261Z,98339.16
2023-05-02T17:05:31.365Z,98341.09
2023-05-02T17:07:58.292Z,98341.88
2023-05-02T17:10:26.650Z,98344.19
2023-05-02T17:12:55.989Z,98347.72
2023-05-02T17:15:23.120Z,98348.50
2023-05-02T17:17:49.789Z,98358.22
2023-05-02T17:20:21.923Z,98356.69
2023-05-02T17:22:48.423Z,98358.22
2023-05-02T17:25:16.728Z,98362.50
2023-05-02T17:27:43.207Z,98357.41
2023-05-02T17:30:10.853Z,98362.84
2023-05-02T17:32:42.035Z,98365.19
2023-05-02T17:35:09.079Z,98363.56
2023-05-02T17:37:38.175Z,98359.22
2023-05-02T17:40:05.953Z,98353.28
2023-05-02T17:42:32.571Z,98354.41
2023-05-02T17:44:59.280Z,98364.09
2023-05-02T17:47:27.555Z,98367.56
2023-05-02T17:49:54.399Z,98368.69
2023-05-02T17:52:21.445Z,98379.50
2023-05-02T17:54:48.140Z,98374.41
2023-05-02T17:57:14.856Z,98377.09
2023-05-02T17:59:41.644Z,98382.13
2023-05-02T18:02:10.454Z,98387.91
2023-05-02T18:04:37.418Z,98398.75
2023-05-02T18:07:05.918Z,98401.06
2023-05-02T18:09:37.218Z,98399.50
2023-05-02T18:12:04.286Z,98404.88
2023-05-02T18:14:30.846Z,98401.34
2023-05-02T18:16:59.074Z,98410.22
2023-05-02T18:19:25.547Z,98404.34
2023-05-02T18:21:54.384Z,98402.44
2023-05-02T18:27:18.980Z,98408.19
2023-05-02T18:29:45.483Z,98408.56
2023-05-02T18:32:12.091Z,98411.66
2023-05-02T18:34:39.173Z,98414.38
2023-05-02T18:37:05.934Z,98417.91
2023-05-02T18:39:34.739Z,98424.47
2023-05-02T18:42:04.698Z,98425.53
2023-05-02T18:44:31.469Z,98424.66
2023-05-02T18:46:58.088Z,98426.56
2023-05-02T18:49:28.408Z,98433.94
2023-05-02T18:51:59.595Z,98438.94
2023-05-02T18:54:27.839Z,98439.69
2023-05-02T18:56:56.112Z,98445.41
2023-05-02T18:59:22.616Z,98450.09
2023-05-02T19:01:49.228Z,98451.66
2023-05-02T19:04:22.322Z,98454.72
2023-05-02T19:06:49.228Z,98449.16
2023-05-02T19:09:15.843Z,98456.16
2023-05-02T19:11:44.533Z,98449.88
2023-05-02T19:14:11.927Z,98451.41
2023-05-02T19:16:40.552Z,98454.06
2023-05-02T19:19:12.168Z,98460.59
2023-05-02T19:21:38.669Z,98455.19
2023-05-02T19:24:05.574Z,98464.47
2023-05-02T19:26:32.403Z,98465.56
2023-05-02T19:28:59.073Z,98468.56
2023-05-02T19:31:25.781Z,98473.56
2023-05-02T19:33:52.829Z,98473.91
2023-05-02T19:36:23.553Z,98477.69
2023-05-02T19:38:52.138Z,98481.50
2023-05-02T19:41:18.776Z,98487.25
2023-05-02T19:43:45.576Z,98491.84
2023-05-02T19:46:12.323Z,98493.72
2023-05-02T19:48:38.879Z,98492.88
2023-05-02T19:51:05.746Z,98495.91
2023-05-02T19:53:36.927Z,98497.00
2023-05-02T19:56:06.861Z,98497.66
2023-05-02T19:58:33.416Z,98500.66
2023-05-02T20:00:59.928Z,98499.84
2023-05-02T20:03:26.662Z,98496.59
2023-05-02T20:05:58.350Z,98499.59
2023-05-02T20:08:28.033Z,98501.06
2023-05-02T20:10:56.830Z,98500.97
2023-05-02T20:13:23.305Z,98506.34
2023-05-02T20:15:50.947Z,98521.81
2023-05-02T20:18:17.677Z,98511.66
2023-05-02T20:20:44.707Z,98513.13
2023-05-02T20:23:13.406Z,98510.78
2023-05-02T20:25:40.591Z,98508.00
2023-05-02T20:28:09.033Z,98509.81
2023-05-02T20:30:36.205Z,98512.03
2023-05-02T20:33:14.652Z,98505.69
2023-05-02T20:35:44.398Z,98514.09
2023-05-02T20:38:11.195Z,98513.97
2023-05-02T20:40:40.755Z,98515.38
2023-05-02T20:43:14.049Z,98516.03
2023-05-02T20:45:40.581Z,98517.09
2023-05-02T20:48:07.218Z,98523.56
2023-05-02T20:50:35.641Z,98518.00
2023-05-02T20:53:02.362Z,98515.59
2023-05-02T20:55:29.069Z,98517.88
2023-05-02T20:57:55.777Z,98514.66
2023-05-02T21:00:22.794Z,98514.50
2023-05-02T21:02:49.800Z,98517.22
2023-05-02T21:05:18.313Z,98521.91
2023-05-02T21:07:45.095Z,98512.22
2023-05-02T21:10:11.764Z,98511.38
2023-05-02T21:12:38.818Z,98510.09
2023-05-02T21:15:07.266Z,98511.06
2023-05-02T21:17:33.895Z,98508.09
2023-05-02T21:20:02.656Z,98514.50
2023-05-02T21:22:31.435Z,98510.16
2023-05-02T21:24:57.918Z,98509.56
2023-05-02T21:27:26.174Z,98520.22
2023-05-02T21:29:52.747Z,98521.59
2023-05-02T21:32:19.322Z,98526.91
2023-05-02T21:34:47.664Z,98523.41
2023-05-02T21:37:14.146Z,98528.47
2023-05-02T21:39:40.651Z,98523.00
2023-05-02T21:42:17.444Z,98532.47
2023-05-02T21:44:46.752Z,98522.38
2023-05-02T21:47:13.362Z,98522.03
2023-05-02T21:49:40.190Z,98521.25
2023-05-02T21:52:06.707Z,98522.03
2023-05-02T21:54:35.247Z,98514.28
2023-05-02T21:57:02.975Z,98516.56
2023-05-02T21:59:29.439Z,98521.84
2023-05-02T22:01:56.470Z,98526.03
2023-05-02T22:04:26.637Z,98524.13
2023-05-02T22:06:53.531Z,98521.78
2023-05-02T22:09:20.863Z,98520.63
2023-05-02T22:11:49.165Z,98524.19
2023-05-02T22:14:15.649Z,98521.84
2023-05-02T22:16:42.272Z,98520.38
2023-05-02T22:19:13.253Z,98520.66
2023-05-02T22:21:39.744Z,98524.56
2023-05-02T22:24:06.365Z,98525.94
2023-05-02T22:26:34.536Z,98522.31
2023-05-02T22:29:01.361Z,98520.38
2023-05-02T22:31:27.880Z,98520.31
2023-05-02T22:33:54.525Z,98524.13
2023-05-02T22:36:21.109Z,98523.94
2023-05-02T22:38:47.562Z,98522.72
2023-05-02T22:41:20.613Z,98522.47
2023-05-02T22:43:48.429Z,98526.38
2023-05-02T22:46:18.056Z,98522.63
2023-05-02T22:48:46.295Z,98521.84
2023-05-02T22:51:12.854Z,98522.53
2023-05-02T22:53:40.135Z,98518.72
2023-05-02T22:56:08.537Z,98520.59
2023-05-02T22:58:37.127Z,98519.97
2023-05-02T23:01:03.708Z,98516.72
2023-05-02T23:03:32.679Z,98517.16
2023-05-02T23:05:59.603Z,98522.09
2023-05-02T23:08:26.249Z,98513.63
2023-05-02T23:10:52.965Z,98502.84
2023-05-02T23:13:19.509Z,98507.13
2023-05-02T23:15:46.329Z,98516.34
2023-05-02T23:18:13.072Z,98515.91
2023-05-02T23:20:39.550Z,98519.03
2023-05-02T23:23:06.136Z,98510.59
2023-05-02T23:25:34.960Z,98512.94
2023-05-02T23:28:05.330Z,98509.34
2023-05-02T23:30:32.845Z,98510.94
2023-05-02T23:33:00.268Z,98509.19
2023-05-02T23:35:26.775Z,98509.84
2023-05-02T23:37:53.289Z,98505.50
2023-05-02T23:40:26.436Z,98514.91
2023-05-02T23:42:53.771Z,98509.28
2023-05-02T23:45:20.943Z,98515.09
2023-05-02T23:47:49.280Z,98515.38
2023-05-02T23:50:15.977Z,98516.50
2023-05-02T23:52:42.744Z,98510.53
2023-05-02T23:55:12.564Z,98509.75
2023-05-02T23:57:39.364Z,98506.59
